sensor_id;sensor_type;location;lat;lon;timestamp;temperature;humidity
37786;DHT22;23625;48.784;9.336;2023-05-20T00:00:08;10.30;99.90
37786;DHT22;23625;48.784;9.336;2023-05-20T00:02:34;10.30;99.90
37786;DHT22;23625;48.784;9.336;2023-05-20T00:05:00;10.30;99.90
37786;DHT22;23625;48.784;9.336;2023-05-20T00:07:26;10.40;99.90
37786;DHT22;23625;48.784;9.336;2023-05-20T00:09:52;10.30;99.90
37786;DHT22;23625;48.784;9.336;2023-05-20T00:12:17;10.30;99.90
37786;DHT22;23625;48.784;9.336;2023-05-20T00:14:43;10.30;99.90
37786;DHT22;23625;48.784;9.336;2023-05-20T00:17:08;10.40;99.90
37786;DHT22;23625;48.784;9.336;2023-05-20T00:19:34;10.40;99.90
37786;DHT22;23625;48.784;9.336;2023-05-20T00:22:00;10.30;99.90
37786;DHT22;23625;48.784;9.336;2023-05-20T00:24:26;10.40;99.90
37786;DHT22;23625;48.784;9.336;2023-05-20T00:26:51;10.40;99.90
37786;DHT22;23625;48.784;9.336;2023-05-20T00:29:20;10.40;99.90
37786;DHT22;23625;48.784;9.336;2023-05-20T00:31:46;10.40;99.90
37786;DHT22;23625;48.784;9.336;2023-05-20T00:34:12;10.40;99.90
37786;DHT22;23625;48.784;9.336;2023-05-20T00:36:38;10.40;99.90
37786;DHT22;23625;48.784;9.336;2023-05-20T00:39:03;10.40;99.90
37786;DHT22;23625;48.784;9.336;2023-05-20T00:41:29;10.40;99.90
37786;DHT22;23625;48.784;9.336;2023-05-20T00:43:55;10.40;99.90
37786;DHT22;23625;48.784;9.336;2023-05-20T00:46:25;10.40;99.90
37786;DHT22;23625;48.784;9.336;2023-05-20T00:48:52;10.40;99.90
37786;DHT22;23625;48.784;9.336;2023-05-20T00:51:18;10.40;99.90
37786;DHT22;23625;48.784;9.336;2023-05-20T00:53:45;10.40;99.90
37786;DHT22;23625;48.784;9.336;2023-05-20T00:56:11;10.40;99.90
37786;DHT22;23625;48.784;9.336;2023-05-20T00:58:37;10.40;99.90
37786;DHT22;23625;48.784;9.336;2023-05-20T01:01:03;10.50;99.90
37786;DHT22;23625;48.784;9.336;2023-05-20T01:03:29;10.50;99.90
37786;DHT22;23625;48.784;9.336;2023-05-20T01:05:55;10.50;99.90
37786;DHT22;23625;48.784;9.336;2023-05-20T01:08:22;10.40;99.90
37786;DHT22;23625;48.784;9.336;2023-05-20T01:10:52;10.40;99.90
37786;DHT22;23625;48.784;9.336;2023-05-20T01:13:21;10.50;99.90
37786;DHT22;23625;48.784;9.336;2023-05-20T01:15:49;10.40;99.90
37786;DHT22;23625;48.784;9.336;2023-05-20T01:18:17;10.50;99.90
37786;DHT22;23625;48.784;9.336;2023-05-20T01:20:48;10.40;99.90
37786;DHT22;23625;48.784;9.336;2023-05-20T01:23:15;10.50;99.90
37786;DHT22;23625;48.784;9.336;2023-05-20T01:25:41;10.40;99.90
37786;DHT22;23625;48.784;9.336;2023-05-20T01:28:07;10.50;99.90
37786;DHT22;23625;48.784;9.336;2023-05-20T01:30:37;10.50;99.90
37786;DHT22;23625;48.784;9.336;2023-05-20T01:33:09;10.40;99.90
37786;DHT22;23625;48.784;9.336;2023-05-20T01:35:35;10.40;99.90
37786;DHT22;23625;48.784;9.336;2023-05-20T01:38:04;10.40;99.90
37786;DHT22;23625;48.784;9.336;2023-05-20T01:40:32;10.40;99.90
37786;DHT22;23625;48.784;9.336;2023-05-20T01:42:58;10.30;99.90
37786;DHT22;23625;48.784;9.336;2023-05-20T01:45:24;10.30;99.90
37786;DHT22;23625;48.784;9.336;2023-05-20T01:47:50;10.30;99.90
37786;DHT22;23625;48.784;9.336;2023-05-20T01:50:16;10.40;99.90
37786;DHT22;23625;48.784;9.336;2023-05-20T01:52:41;10.30;99.90
37786;DHT22;23625;48.784;9.336;2023-05-20T01:55:07;10.30;99.90
37786;DHT22;23625;48.784;9.336;2023-05-20T01:57:33;10.30;99.90
37786;DHT22;23625;48.784;9.336;2023-05-20T01:59:59;10.20;99.90
37786;DHT22;23625;48.784;9.336;2023-05-20T02:02:24;10.20;99.90
37786;DHT22;23625;48.784;9.336;2023-05-20T02:04:50;10.20;99.90
37786;DHT22;23625;48.784;9.336;2023-05-20T02:07:17;10.20;99.90
37786;DHT22;23625;48.784;9.336;2023-05-20T02:09:43;10.20;99.90
37786;DHT22;23625;48.784;9.336;2023-05-20T02:12:09;10.20;99.90
37786;DHT22;23625;48.784;9.336;2023-05-20T02:14:41;10.20;99.90
37786;DHT22;23625;48.784;9.336;2023-05-20T02:17:06;10.10;99.90
37786;DHT22;23625;48.784;9.336;2023-05-20T02:19:32;10.10;99.90
37786;DHT22;23625;48.784;9.336;2023-05-20T02:21:57;10.10;99.90
37786;DHT22;23625;48.784;9.336;2023-05-20T02:24:23;10.00;99.90
37786;DHT22;23625;48.784;9.336;2023-05-20T02:26:49;10.00;99.90
37786;DHT22;23625;48.784;9.336;2023-05-20T02:29:15;10.00;99.90
37786;DHT22;23625;48.784;9.336;2023-05-20T02:31:41;10.00;99.90
37786;DHT22;23625;48.784;9.336;2023-05-20T02:34:07;9.90;99.90
37786;DHT22;23625;48.784;9.336;2023-05-20T02:36:32;9.90;99.90
37786;DHT22;23625;48.784;9.336;2023-05-20T02:38:58;9.90;99.90
37786;DHT22;23625;48.784;9.336;2023-05-20T02:41:25;9.90;99.90
37786;DHT22;23625;48.784;9.336;2023-05-20T02:43:51;9.90;99.90
37786;DHT22;23625;48.784;9.336;2023-05-20T02:46:16;9.80;99.90
37786;DHT22;23625;48.784;9.336;2023-05-20T02:48:44;9.80;99.90
37786;DHT22;23625;48.784;9.336;2023-05-20T02:51:09;9.80;99.90
37786;DHT22;23625;48.784;9.336;2023-05-20T02:53:35;9.80;99.90
37786;DHT22;23625;48.784;9.336;2023-05-20T02:56:03;9.80;99.90
37786;DHT22;23625;48.784;9.336;2023-05-20T02:58:29;9.80;99.90
37786;DHT22;23625;48.784;9.336;2023-05-20T03:00:54;9.70;99.90
37786;DHT22;23625;48.784;9.336;2023-05-20T03:03:22;9.70;99.90
37786;DHT22;23625;48.784;9.336;2023-05-20T03:05:48;9.70;99.90
37786;DHT22;23625;48.784;9.336;2023-05-20T03:08:14;9.70;99.90
37786;DHT22;23625;48.784;9.336;2023-05-20T03:10:40;9.70;99.90
37786;DHT22;23625;48.784;9.336;2023-05-20T03:13:06;9.70;99.90
37786;DHT22;23625;48.784;9.336;2023-05-20T03:15:34;9.60;99.90
37786;DHT22;23625;48.784;9.336;2023-05-20T03:18:02;9.60;99.90
37786;DHT22;23625;48.784;9.336;2023-05-20T03:20:28;9.60;99.90
37786;DHT22;23625;48.784;9.336;2023-05-20T03:22:54;9.60;99.90
37786;DHT22;23625;48.784;9.336;2023-05-20T03:25:21;9.60;99.90
37786;DHT22;23625;48.784;9.336;2023-05-20T03:27:47;9.60;99.90
37786;DHT22;23625;48.784;9.336;2023-05-20T03:30:13;9.50;99.90
37786;DHT22;23625;48.784;9.336;2023-05-20T03:32:38;9.50;99.90
37786;DHT22;23625;48.784;9.336;2023-05-20T03:35:05;9.50;99.90
37786;DHT22;23625;48.784;9.336;2023-05-20T03:37:31;9.40;99.90
37786;DHT22;23625;48.784;9.336;2023-05-20T03:39:56;9.40;99.90
37786;DHT22;23625;48.784;9.336;2023-05-20T03:42:22;9.40;99.90
37786;DHT22;23625;48.784;9.336;2023-05-20T03:44:47;9.30;99.90
37786;DHT22;23625;48.784;9.336;2023-05-20T03:47:13;9.30;99.90
37786;DHT22;23625;48.784;9.336;2023-05-20T03:49:38;9.20;99.90
37786;DHT22;23625;48.784;9.336;2023-05-20T03:52:05;9.20;99.90
37786;DHT22;23625;48.784;9.336;2023-05-20T03:54:31;9.30;99.90
37786;DHT22;23625;48.784;9.336;2023-05-20T03:56:57;9.20;99.90
37786;DHT22;23625;48.784;9.336;2023-05-20T03:59:25;9.20;99.90
37786;DHT22;23625;48.784;9.336;2023-05-20T04:01:51;9.20;99.90
37786;DHT22;23625;48.784;9.336;2023-05-20T04:04:17;9.20;99.90
37786;DHT22;23625;48.784;9.336;2023-05-20T04:06:42;9.30;99.90
37786;DHT22;23625;48.784;9.336;2023-05-20T04:09:08;9.30;99.90
37786;DHT22;23625;48.784;9.336;2023-05-20T04:11:33;9.30;99.90
37786;DHT22;23625;48.784;9.336;2023-05-20T04:13:59;9.30;99.90
37786;DHT22;23625;48.784;9.336;2023-05-20T04:16:25;9.30;99.90
37786;DHT22;23625;48.784;9.336;2023-05-20T04:18:50;9.30;99.90
37786;DHT22;23625;48.784;9.336;2023-05-20T04:21:17;9.20;99.90
37786;DHT22;23625;48.784;9.336;2023-05-20T04:23:43;9.40;99.90
37786;DHT22;23625;48.784;9.336;2023-05-20T04:26:09;9.50;99.90
37786;DHT22;23625;48.784;9.336;2023-05-20T04:28:34;9.50;99.90
37786;DHT22;23625;48.784;9.336;2023-05-20T04:31:02;9.60;99.90
37786;DHT22;23625;48.784;9.336;2023-05-20T04:33:31;9.60;99.90
37786;DHT22;23625;48.784;9.336;2023-05-20T04:35:57;9.70;99.90
37786;DHT22;23625;48.784;9.336;2023-05-20T04:38:26;9.80;99.90
37786;DHT22;23625;48.784;9.336;2023-05-20T04:41:00;9.80;99.90
37786;DHT22;23625;48.784;9.336;2023-05-20T04:43:27;9.80;99.90
37786;DHT22;23625;48.784;9.336;2023-05-20T04:45:56;9.80;99.90
37786;DHT22;23625;48.784;9.336;2023-05-20T04:48:22;9.90;99.90
37786;DHT22;23625;48.784;9.336;2023-05-20T04:50:48;9.90;99.90
37786;DHT22;23625;48.784;9.336;2023-05-20T04:53:15;10.00;99.90
37786;DHT22;23625;48.784;9.336;2023-05-20T04:55:40;10.10;99.90
37786;DHT22;23625;48.784;9.336;2023-05-20T04:58:07;10.20;99.90
37786;DHT22;23625;48.784;9.336;2023-05-20T05:00:45;10.30;99.90
37786;DHT22;23625;48.784;9.336;2023-05-20T05:03:11;10.40;99.90
37786;DHT22;23625;48.784;9.336;2023-05-20T05:05:37;10.50;99.90
37786;DHT22;23625;48.784;9.336;2023-05-20T05:08:04;10.60;99.90
37786;DHT22;23625;48.784;9.336;2023-05-20T05:10:31;10.70;99.90
37786;DHT22;23625;48.784;9.336;2023-05-20T05:12:56;10.80;99.90
37786;DHT22;23625;48.784;9.336;2023-05-20T05:15:22;10.80;99.90
37786;DHT22;23625;48.784;9.336;2023-05-20T05:17:48;10.90;99.90
37786;DHT22;23625;48.784;9.336;2023-05-20T05:20:14;11.00;99.90
37786;DHT22;23625;48.784;9.336;2023-05-20T05:22:39;11.10;99.90
37786;DHT22;23625;48.784;9.336;2023-05-20T05:25:07;11.20;99.90
37786;DHT22;23625;48.784;9.336;2023-05-20T05:27:33;11.20;99.90
37786;DHT22;23625;48.784;9.336;2023-05-20T05:29:59;11.30;99.90
37786;DHT22;23625;48.784;9.336;2023-05-20T05:32:25;11.40;99.90
37786;DHT22;23625;48.784;9.336;2023-05-20T05:34:51;11.50;99.90
37786;DHT22;23625;48.784;9.336;2023-05-20T05:37:16;11.60;99.90
37786;DHT22;23625;48.784;9.336;2023-05-20T05:39:42;11.60;99.90
37786;DHT22;23625;48.784;9.336;2023-05-20T05:42:07;11.70;99.90
37786;DHT22;23625;48.784;9.336;2023-05-20T05:44:33;11.80;99.90
37786;DHT22;23625;48.784;9.336;2023-05-20T05:46:59;11.90;99.90
37786;DHT22;23625;48.784;9.336;2023-05-20T05:49:24;12.00;99.90
37786;DHT22;23625;48.784;9.336;2023-05-20T05:51:50;12.10;99.90
37786;DHT22;23625;48.784;9.336;2023-05-20T05:54:16;12.20;99.90
37786;DHT22;23625;48.784;9.336;2023-05-20T05:56:41;12.30;99.90
37786;DHT22;23625;48.784;9.336;2023-05-20T05:59:07;12.40;99.90
37786;DHT22;23625;48.784;9.336;2023-05-20T06:01:33;12.60;99.90
37786;DHT22;23625;48.784;9.336;2023-05-20T06:03:58;12.70;99.90
37786;DHT22;23625;48.784;9.336;2023-05-20T06:06:24;12.80;99.90
37786;DHT22;23625;48.784;9.336;2023-05-20T06:08:49;12.90;99.90
37786;DHT22;23625;48.784;9.336;2023-05-20T06:11:15;13.00;99.90
37786;DHT22;23625;48.784;9.336;2023-05-20T06:13:41;13.10;99.90
37786;DHT22;23625;48.784;9.336;2023-05-20T06:16:06;13.20;99.90
37786;DHT22;23625;48.784;9.336;2023-05-20T06:18:32;13.50;99.90
37786;DHT22;23625;48.784;9.336;2023-05-20T06:20:58;13.60;99.90
37786;DHT22;23625;48.784;9.336;2023-05-20T06:23:24;13.70;99.90
37786;DHT22;23625;48.784;9.336;2023-05-20T06:25:50;13.90;99.90
37786;DHT22;23625;48.784;9.336;2023-05-20T06:28:16;14.10;99.90
37786;DHT22;23625;48.784;9.336;2023-05-20T06:30:41;14.30;99.90
37786;DHT22;23625;48.784;9.336;2023-05-20T06:33:07;14.40;99.90
37786;DHT22;23625;48.784;9.336;2023-05-20T06:35:33;14.60;99.90
37786;DHT22;23625;48.784;9.336;2023-05-20T06:38:01;14.80;99.90
37786;DHT22;23625;48.784;9.336;2023-05-20T06:40:27;14.80;99.90
37786;DHT22;23625;48.784;9.336;2023-05-20T06:42:53;14.90;99.90
37786;DHT22;23625;48.784;9.336;2023-05-20T06:45:19;15.10;99.90
37786;DHT22;23625;48.784;9.336;2023-05-20T06:47:46;15.20;99.90
37786;DHT22;23625;48.784;9.336;2023-05-20T06:50:13;15.30;99.90
37786;DHT22;23625;48.784;9.336;2023-05-20T06:52:39;15.40;99.90
37786;DHT22;23625;48.784;9.336;2023-05-20T06:55:05;15.60;99.90
37786;DHT22;23625;48.784;9.336;2023-05-20T06:57:31;15.60;99.90
37786;DHT22;23625;48.784;9.336;2023-05-20T06:59:56;15.60;99.90
37786;DHT22;23625;48.784;9.336;2023-05-20T07:02:23;15.70;99.90
37786;DHT22;23625;48.784;9.336;2023-05-20T07:04:49;15.80;99.90
37786;DHT22;23625;48.784;9.336;2023-05-20T07:07:15;15.80;99.90
37786;DHT22;23625;48.784;9.336;2023-05-20T07:09:42;15.80;99.90
37786;DHT22;23625;48.784;9.336;2023-05-20T07:12:07;15.90;99.90
37786;DHT22;23625;48.784;9.336;2023-05-20T07:14:33;15.90;99.90
37786;DHT22;23625;48.784;9.336;2023-05-20T07:16:59;16.00;99.90
37786;DHT22;23625;48.784;9.336;2023-05-20T07:19:24;16.10;99.90
37786;DHT22;23625;48.784;9.336;2023-05-20T07:21:50;16.10;99.90
37786;DHT22;23625;48.784;9.336;2023-05-20T07:24:16;16.30;99.90
37786;DHT22;23625;48.784;9.336;2023-05-20T07:26:42;16.50;99.90
37786;DHT22;23625;48.784;9.336;2023-05-20T07:29:08;16.60;99.90
37786;DHT22;23625;48.784;9.336;2023-05-20T07:31:34;16.80;99.90
37786;DHT22;23625;48.784;9.336;2023-05-20T07:34:00;16.80;99.90
37786;DHT22;23625;48.784;9.336;2023-05-20T07:36:27;17.00;99.90
37786;DHT22;23625;48.784;9.336;2023-05-20T07:38:53;17.10;99.90
37786;DHT22;23625;48.784;9.336;2023-05-20T07:41:19;17.40;99.90
37786;DHT22;23625;48.784;9.336;2023-05-20T07:43:45;17.50;99.90
37786;DHT22;23625;48.784;9.336;2023-05-20T07:46:11;17.60;99.90
37786;DHT22;23625;48.784;9.336;2023-05-20T07:48:36;17.60;99.90
37786;DHT22;23625;48.784;9.336;2023-05-20T07:51:02;17.50;99.90
37786;DHT22;23625;48.784;9.336;2023-05-20T07:53:28;17.60;99.90
37786;DHT22;23625;48.784;9.336;2023-05-20T07:55:53;17.60;99.90
37786;DHT22;23625;48.784;9.336;2023-05-20T07:58:19;17.50;99.90
37786;DHT22;23625;48.784;9.336;2023-05-20T08:00:45;17.40;99.90
37786;DHT22;23625;48.784;9.336;2023-05-20T08:03:10;17.40;99.90
37786;DHT22;23625;48.784;9.336;2023-05-20T08:05:37;17.40;99.90
37786;DHT22;23625;48.784;9.336;2023-05-20T08:08:03;17.50;99.90
37786;DHT22;23625;48.784;9.336;2023-05-20T08:10:29;17.70;99.90
37786;DHT22;23625;48.784;9.336;2023-05-20T08:12:55;17.80;99.90
37786;DHT22;23625;48.784;9.336;2023-05-20T08:15:21;17.80;99.90
37786;DHT22;23625;48.784;9.336;2023-05-20T08:17:47;17.90;99.90
37786;DHT22;23625;48.784;9.336;2023-05-20T08:20:12;17.90;99.90
37786;DHT22;23625;48.784;9.336;2023-05-20T08:22:39;17.90;99.90
37786;DHT22;23625;48.784;9.336;2023-05-20T08:25:07;18.00;99.90
37786;DHT22;23625;48.784;9.336;2023-05-20T08:27:34;18.10;99.90
37786;DHT22;23625;48.784;9.336;2023-05-20T08:30:00;18.20;99.90
37786;DHT22;23625;48.784;9.336;2023-05-20T08:32:26;18.40;99.90
37786;DHT22;23625;48.784;9.336;2023-05-20T08:34:51;18.40;98.80
37786;DHT22;23625;48.784;9.336;2023-05-20T08:37:17;18.50;97.50
37786;DHT22;23625;48.784;9.336;2023-05-20T08:39:42;18.70;98.40
37786;DHT22;23625;48.784;9.336;2023-05-20T08:42:10;18.80;96.20
37786;DHT22;23625;48.784;9.336;2023-05-20T08:44:39;18.80;96.20
37786;DHT22;23625;48.784;9.336;2023-05-20T08:47:07;18.80;96.30
37786;DHT22;23625;48.784;9.336;2023-05-20T08:49:33;18.80;98.30
37786;DHT22;23625;48.784;9.336;2023-05-20T08:52:00;19.00;97.50
37786;DHT22;23625;48.784;9.336;2023-05-20T08:54:37;19.00;95.50
37786;DHT22;23625;48.784;9.336;2023-05-20T08:57:04;18.90;93.60
37786;DHT22;23625;48.784;9.336;2023-05-20T08:59:30;19.10;96.60
37786;DHT22;23625;48.784;9.336;2023-05-20T09:01:57;19.20;94.80
37786;DHT22;23625;48.784;9.336;2023-05-20T09:04:22;19.30;95.00
37786;DHT22;23625;48.784;9.336;2023-05-20T09:06:49;19.20;93.70
37786;DHT22;23625;48.784;9.336;2023-05-20T09:09:15;19.10;94.70
37786;DHT22;23625;48.784;9.336;2023-05-20T09:11:42;19.10;96.40
37786;DHT22;23625;48.784;9.336;2023-05-20T09:14:08;19.00;96.50
37786;DHT22;23625;48.784;9.336;2023-05-20T09:16:34;19.20;96.60
37786;DHT22;23625;48.784;9.336;2023-05-20T09:18:59;19.60;94.80
37786;DHT22;23625;48.784;9.336;2023-05-20T09:21:28;19.90;92.80
37786;DHT22;23625;48.784;9.336;2023-05-20T09:23:55;19.90;90.40
37786;DHT22;23625;48.784;9.336;2023-05-20T09:26:26;20.00;91.30
37786;DHT22;23625;48.784;9.336;2023-05-20T09:28:52;20.50;90.70
37786;DHT22;23625;48.784;9.336;2023-05-20T09:31:18;20.80;81.60
37786;DHT22;23625;48.784;9.336;2023-05-20T09:33:43;21.00;84.90
37786;DHT22;23625;48.784;9.336;2023-05-20T09:36:09;21.40;79.00
37786;DHT22;23625;48.784;9.336;2023-05-20T09:38:37;21.30;80.20
37786;DHT22;23625;48.784;9.336;2023-05-20T09:41:06;21.50;77.70
37786;DHT22;23625;48.784;9.336;2023-05-20T09:43:33;21.60;75.90
37786;DHT22;23625;48.784;9.336;2023-05-20T09:45:59;21.70;75.40
37786;DHT22;23625;48.784;9.336;2023-05-20T09:48:26;21.80;75.90
37786;DHT22;23625;48.784;9.336;2023-05-20T09:50:53;21.70;72.90
37786;DHT22;23625;48.784;9.336;2023-05-20T09:53:20;21.50;75.20
37786;DHT22;23625;48.784;9.336;2023-05-20T09:55:46;21.30;73.20
37786;DHT22;23625;48.784;9.336;2023-05-20T09:58:13;21.10;75.20
37786;DHT22;23625;48.784;9.336;2023-05-20T10:00:39;21.30;78.50
37786;DHT22;23625;48.784;9.336;2023-05-20T10:03:06;21.50;74.50
37786;DHT22;23625;48.784;9.336;2023-05-20T10:05:36;21.80;74.10
37786;DHT22;23625;48.784;9.336;2023-05-20T10:11:16;21.90;72.80
37786;DHT22;23625;48.784;9.336;2023-05-20T10:19:32;22.30;70.50
37786;DHT22;23625;48.784;9.336;2023-05-20T10:22:02;22.30;69.60
37786;DHT22;23625;48.784;9.336;2023-05-20T10:24:33;22.40;68.90
37786;DHT22;23625;48.784;9.336;2023-05-20T10:27:01;22.50;66.80
37786;DHT22;23625;48.784;9.336;2023-05-20T10:29:27;22.30;67.40
37786;DHT22;23625;48.784;9.336;2023-05-20T10:31:53;22.10;68.20
37786;DHT22;23625;48.784;9.336;2023-05-20T10:34:21;22.00;68.00
37786;DHT22;23625;48.784;9.336;2023-05-20T10:39:18;22.30;68.10
37786;DHT22;23625;48.784;9.336;2023-05-20T10:41:44;22.50;66.10
37786;DHT22;23625;48.784;9.336;2023-05-20T10:44:10;22.60;66.30
37786;DHT22;23625;48.784;9.336;2023-05-20T10:46:35;22.70;65.70
37786;DHT22;23625;48.784;9.336;2023-05-20T10:49:01;22.70;66.20
37786;DHT22;23625;48.784;9.336;2023-05-20T10:51:28;22.80;66.00
37786;DHT22;23625;48.784;9.336;2023-05-20T10:53:54;22.90;66.40
37786;DHT22;23625;48.784;9.336;2023-05-20T10:56:22;23.20;66.70
37786;DHT22;23625;48.784;9.336;2023-05-20T10:58:49;23.30;62.60
37786;DHT22;23625;48.784;9.336;2023-05-20T11:01:15;23.60;65.10
37786;DHT22;23625;48.784;9.336;2023-05-20T11:03:42;23.80;64.70
37786;DHT22;23625;48.784;9.336;2023-05-20T11:06:15;23.80;62.40
37786;DHT22;23625;48.784;9.336;2023-05-20T11:08:45;23.50;61.30
37786;DHT22;23625;48.784;9.336;2023-05-20T11:11:11;23.60;60.30
37786;DHT22;23625;48.784;9.336;2023-05-20T11:13:37;23.80;60.00
37786;DHT22;23625;48.784;9.336;2023-05-20T11:16:04;24.00;60.90
37786;DHT22;23625;48.784;9.336;2023-05-20T11:18:30;24.00;60.80
37786;DHT22;23625;48.784;9.336;2023-05-20T11:20:57;23.90;61.10
37786;DHT22;23625;48.784;9.336;2023-05-20T11:23:23;24.00;61.60
37786;DHT22;23625;48.784;9.336;2023-05-20T11:25:52;23.80;60.20
37786;DHT22;23625;48.784;9.336;2023-05-20T11:28:19;24.00;60.20
37786;DHT22;23625;48.784;9.336;2023-05-20T11:30:49;24.30;60.60
37786;DHT22;23625;48.784;9.336;2023-05-20T11:33:16;24.30;59.20
37786;DHT22;23625;48.784;9.336;2023-05-20T11:35:51;24.20;58.70
37786;DHT22;23625;48.784;9.336;2023-05-20T11:38:18;24.50;58.90
37786;DHT22;23625;48.784;9.336;2023-05-20T11:40:52;24.70;58.00
37786;DHT22;23625;48.784;9.336;2023-05-20T11:43:19;24.80;57.40
37786;DHT22;23625;48.784;9.336;2023-05-20T11:45:46;24.60;57.80
37786;DHT22;23625;48.784;9.336;2023-05-20T11:48:17;24.60;57.50
37786;DHT22;23625;48.784;9.336;2023-05-20T11:50:45;24.70;58.40
37786;DHT22;23625;48.784;9.336;2023-05-20T11:53:18;24.90;57.20
37786;DHT22;23625;48.784;9.336;2023-05-20T11:55:58;24.80;56.30
37786;DHT22;23625;48.784;9.336;2023-05-20T11:58:31;24.80;56.80
37786;DHT22;23625;48.784;9.336;2023-05-20T12:00:56;25.00;58.80
37786;DHT22;23625;48.784;9.336;2023-05-20T12:03:22;25.00;56.50
37786;DHT22;23625;48.784;9.336;2023-05-20T12:05:48;25.10;56.10
37786;DHT22;23625;48.784;9.336;2023-05-20T12:08:15;24.80;56.40
37786;DHT22;23625;48.784;9.336;2023-05-20T12:10:40;24.40;56.10
37786;DHT22;23625;48.784;9.336;2023-05-20T12:13:06;24.20;57.10
37786;DHT22;23625;48.784;9.336;2023-05-20T12:15:37;24.20;57.80
37786;DHT22;23625;48.784;9.336;2023-05-20T12:18:03;24.00;57.20
37786;DHT22;23625;48.784;9.336;2023-05-20T12:20:29;23.80;56.70
37786;DHT22;23625;48.784;9.336;2023-05-20T12:22:56;23.80;57.10
37786;DHT22;23625;48.784;9.336;2023-05-20T12:25:22;23.80;57.50
37786;DHT22;23625;48.784;9.336;2023-05-20T12:27:48;23.80;57.10
37786;DHT22;23625;48.784;9.336;2023-05-20T12:30:19;23.70;58.00
37786;DHT22;23625;48.784;9.336;2023-05-20T12:32:46;23.80;58.20
37786;DHT22;23625;48.784;9.336;2023-05-20T12:35:12;23.90;57.80
37786;DHT22;23625;48.784;9.336;2023-05-20T12:37:38;23.90;59.40
37786;DHT22;23625;48.784;9.336;2023-05-20T12:40:05;24.30;59.30
37786;DHT22;23625;48.784;9.336;2023-05-20T12:42:36;24.60;57.40
37786;DHT22;23625;48.784;9.336;2023-05-20T12:45:03;24.70;57.70
37786;DHT22;23625;48.784;9.336;2023-05-20T12:47:30;24.60;55.60
37786;DHT22;23625;48.784;9.336;2023-05-20T12:49:56;24.50;55.70
37786;DHT22;23625;48.784;9.336;2023-05-20T12:52:22;24.60;57.30
37786;DHT22;23625;48.784;9.336;2023-05-20T12:54:47;24.80;57.10
37786;DHT22;23625;48.784;9.336;2023-05-20T12:57:13;25.00;56.30
37786;DHT22;23625;48.784;9.336;2023-05-20T12:59:38;25.10;55.20
37786;DHT22;23625;48.784;9.336;2023-05-20T13:02:04;25.00;55.50
37786;DHT22;23625;48.784;9.336;2023-05-20T13:04:30;24.90;55.80
37786;DHT22;23625;48.784;9.336;2023-05-20T13:06:56;24.90;55.40
37786;DHT22;23625;48.784;9.336;2023-05-20T13:09:22;25.10;55.30
37786;DHT22;23625;48.784;9.336;2023-05-20T13:11:47;25.30;55.50
37786;DHT22;23625;48.784;9.336;2023-05-20T13:14:13;25.60;54.90
37786;DHT22;23625;48.784;9.336;2023-05-20T13:16:39;25.70;53.80
37786;DHT22;23625;48.784;9.336;2023-05-20T13:19:04;25.70;53.70
37786;DHT22;23625;48.784;9.336;2023-05-20T13:21:30;25.70;53.40
37786;DHT22;23625;48.784;9.336;2023-05-20T13:23:56;25.50;53.20
37786;DHT22;23625;48.784;9.336;2023-05-20T13:26:21;25.00;53.70
37786;DHT22;23625;48.784;9.336;2023-05-20T13:28:47;24.90;53.80
37786;DHT22;23625;48.784;9.336;2023-05-20T13:31:13;24.70;54.70
37786;DHT22;23625;48.784;9.336;2023-05-20T13:33:38;24.50;55.00
37786;DHT22;23625;48.784;9.336;2023-05-20T13:36:04;24.40;55.70
37786;DHT22;23625;48.784;9.336;2023-05-20T13:38:30;24.50;56.00
37786;DHT22;23625;48.784;9.336;2023-05-20T13:40:56;24.40;55.90
37786;DHT22;23625;48.784;9.336;2023-05-20T13:43:24;24.40;55.70
37786;DHT22;23625;48.784;9.336;2023-05-20T13:45:51;24.50;55.50
37786;DHT22;23625;48.784;9.336;2023-05-20T13:48:16;24.60;55.40
37786;DHT22;23625;48.784;9.336;2023-05-20T13:50:42;24.50;55.60
37786;DHT22;23625;48.784;9.336;2023-05-20T13:53:08;24.50;56.10
37786;DHT22;23625;48.784;9.336;2023-05-20T13:55:37;24.50;56.20
37786;DHT22;23625;48.784;9.336;2023-05-20T13:58:03;24.40;56.00
37786;DHT22;23625;48.784;9.336;2023-05-20T14:00:30;24.40;56.30
37786;DHT22;23625;48.784;9.336;2023-05-20T14:02:56;24.40;56.10
37786;DHT22;23625;48.784;9.336;2023-05-20T14:05:22;24.40;57.00
37786;DHT22;23625;48.784;9.336;2023-05-20T14:07:47;24.30;56.50
37786;DHT22;23625;48.784;9.336;2023-05-20T14:10:13;24.40;55.90
37786;DHT22;23625;48.784;9.336;2023-05-20T14:12:39;24.60;55.60
37786;DHT22;23625;48.784;9.336;2023-05-20T14:15:05;24.90;55.90
37786;DHT22;23625;48.784;9.336;2023-05-20T14:17:33;25.20;54.90
37786;DHT22;23625;48.784;9.336;2023-05-20T14:19:59;25.60;54.30
37786;DHT22;23625;48.784;9.336;2023-05-20T14:22:25;25.50;53.60
37786;DHT22;23625;48.784;9.336;2023-05-20T14:24:50;25.60;54.20
37786;DHT22;23625;48.784;9.336;2023-05-20T14:27:16;25.70;53.60
37786;DHT22;23625;48.784;9.336;2023-05-20T14:29:41;25.50;53.70
37786;DHT22;23625;48.784;9.336;2023-05-20T14:32:07;25.50;54.00
37786;DHT22;23625;48.784;9.336;2023-05-20T14:34:33;25.60;53.80
37786;DHT22;23625;48.784;9.336;2023-05-20T14:36:58;25.50;54.30
37786;DHT22;23625;48.784;9.336;2023-05-20T14:39:29;25.50;53.80
37786;DHT22;23625;48.784;9.336;2023-05-20T14:41:55;25.40;53.50
37786;DHT22;23625;48.784;9.336;2023-05-20T14:44:20;25.20;53.40
37786;DHT22;23625;48.784;9.336;2023-05-20T14:46:46;25.00;54.00
37786;DHT22;23625;48.784;9.336;2023-05-20T14:49:12;25.00;54.10
37786;DHT22;23625;48.784;9.336;2023-05-20T14:51:37;25.10;54.00
37786;DHT22;23625;48.784;9.336;2023-05-20T14:54:03;25.10;54.10
37786;DHT22;23625;48.784;9.336;2023-05-20T14:56:30;25.10;53.90
37786;DHT22;23625;48.784;9.336;2023-05-20T14:58:55;25.20;54.00
37786;DHT22;23625;48.784;9.336;2023-05-20T15:01:21;25.10;53.90
37786;DHT22;23625;48.784;9.336;2023-05-20T15:03:47;25.00;53.20
37786;DHT22;23625;48.784;9.336;2023-05-20T15:06:12;24.90;53.30
37786;DHT22;23625;48.784;9.336;2023-05-20T15:08:38;24.70;54.10
37786;DHT22;23625;48.784;9.336;2023-05-20T15:11:03;24.70;54.30
37786;DHT22;23625;48.784;9.336;2023-05-20T15:13:29;24.60;54.40
37786;DHT22;23625;48.784;9.336;2023-05-20T15:15:55;24.60;54.70
37786;DHT22;23625;48.784;9.336;2023-05-20T15:18:23;24.60;55.10
37786;DHT22;23625;48.784;9.336;2023-05-20T15:20:51;24.50;54.90
37786;DHT22;23625;48.784;9.336;2023-05-20T15:23:17;24.50;55.20
37786;DHT22;23625;48.784;9.336;2023-05-20T15:25:42;24.50;55.70
37786;DHT22;23625;48.784;9.336;2023-05-20T15:28:08;24.60;55.10
37786;DHT22;23625;48.784;9.336;2023-05-20T15:30:33;24.60;54.80
37786;DHT22;23625;48.784;9.336;2023-05-20T15:32:59;24.70;55.50
37786;DHT22;23625;48.784;9.336;2023-05-20T15:35:25;24.70;55.50
37786;DHT22;23625;48.784;9.336;2023-05-20T15:37:50;24.70;55.20